Accueil
METAR-TAF:

Aéroports :

Florennes, Belgique

Base aérienne de Florennes

latitude: 50-14N, longitude: 004-39E, altitude: 279 m

Observation

Le bulletin a été fait il y a 27 minutes, à 16:25 UTC
Vent 8 kt de nord/nord-est
Température 7°C
Humidité 76%
Pression 1020 hPa
Visibilité 10 km ou plus
Nuages fragmentés à une hauteur de 4800 ft
pluie faible

METAR: EBFS 301625Z 03008KT 9999 -RA BKN048 07/03 Q1020 BLU

Heure: 18:52 (16:52 UTC)

Prévision

Le bulletin a été fait il y a 5 heures et 11 minutes, à 11:41 UTC
Prévision valable du 30 à 13 UTC au 30 à 22 UTC
Vent 8 kt de nord
Visibilité 10 km ou plus
Nuages épars à une hauteur de 3000 ft
Nuages fragmentés à une hauteur de 6000 ft
Temporairement
du 30 à 13 UTC au 30 à 20 UTC
Visibilité: 5000 m
Nuages fragmentés à une hauteur de 1800 ft
faibles averses de pluie

TAF: EBFS 301141Z 3013/3022 01008KT 9999 SCT030 BKN060 TEMPO 3013/3020 5000 -SHRA BKN018 BY EBWM

METAR-TAF

Observations et prévisions météorologiques de plus de 4000 aéroports (messages METAR et TAF).

Les stations disponibles sont représentées par des disques jaunes et rouges sur la carte.

Passer la souris dessus pour voir le nom de la station.

Cliquer dessus pour voir les observations et prévisions météorologiques.

Pour changer de carte: cliquez sur les boutons verts avec une croix noire pour zoomer, sur le bouton vert avec un tiret pour effectuer un zoom arrière, ou sur les flèches vertes pour les cartes adjacentes.


METAR-TAF: